sensor_id;sensor_type;location;lat;lon;timestamp;temperature;humidity
5344;DHT22;2694;48.954;8.928;2023-04-06T00:01:08;-0.40;99.90
5344;DHT22;2694;48.954;8.928;2023-04-06T00:03:35;-0.40;99.90
5344;DHT22;2694;48.954;8.928;2023-04-06T00:06:02;-0.40;99.90
5344;DHT22;2694;48.954;8.928;2023-04-06T00:08:30;-0.30;99.90
5344;DHT22;2694;48.954;8.928;2023-04-06T00:10:57;-0.40;99.90
5344;DHT22;2694;48.954;8.928;2023-04-06T00:13:24;-0.30;99.90
5344;DHT22;2694;48.954;8.928;2023-04-06T00:15:51;-0.30;99.90
5344;DHT22;2694;48.954;8.928;2023-04-06T00:18:19;-0.40;99.90
5344;DHT22;2694;48.954;8.928;2023-04-06T00:20:46;-0.30;99.90
5344;DHT22;2694;48.954;8.928;2023-04-06T00:23:14;-0.30;99.90
5344;DHT22;2694;48.954;8.928;2023-04-06T00:25:41;-0.30;99.90
5344;DHT22;2694;48.954;8.928;2023-04-06T00:28:08;-0.40;99.90
5344;DHT22;2694;48.954;8.928;2023-04-06T00:30:35;-0.30;99.90
5344;DHT22;2694;48.954;8.928;2023-04-06T00:33:02;-0.30;99.90
5344;DHT22;2694;48.954;8.928;2023-04-06T00:35:30;-0.40;99.90
5344;DHT22;2694;48.954;8.928;2023-04-06T00:37:57;-0.40;99.90
5344;DHT22;2694;48.954;8.928;2023-04-06T00:40:25;-0.40;99.90
5344;DHT22;2694;48.954;8.928;2023-04-06T00:42:54;-0.40;99.90
5344;DHT22;2694;48.954;8.928;2023-04-06T00:45:21;-0.50;99.90
5344;DHT22;2694;48.954;8.928;2023-04-06T00:47:48;-0.50;99.90
5344;DHT22;2694;48.954;8.928;2023-04-06T00:50:15;-0.50;99.90
5344;DHT22;2694;48.954;8.928;2023-04-06T00:52:43;-0.50;99.90
5344;DHT22;2694;48.954;8.928;2023-04-06T00:55:10;-0.50;99.90
5344;DHT22;2694;48.954;8.928;2023-04-06T00:57:37;-0.50;99.90
5344;DHT22;2694;48.954;8.928;2023-04-06T01:00:11;-0.40;99.90
5344;DHT22;2694;48.954;8.928;2023-04-06T01:02:39;-0.50;99.90
5344;DHT22;2694;48.954;8.928;2023-04-06T01:05:07;-0.50;99.90
5344;DHT22;2694;48.954;8.928;2023-04-06T01:07:34;-0.40;99.90
5344;DHT22;2694;48.954;8.928;2023-04-06T01:10:02;-0.50;99.90
5344;DHT22;2694;48.954;8.928;2023-04-06T01:12:30;-0.40;99.90
5344;DHT22;2694;48.954;8.928;2023-04-06T01:14:56;-0.40;99.90
5344;DHT22;2694;48.954;8.928;2023-04-06T01:17:24;-0.50;99.90
5344;DHT22;2694;48.954;8.928;2023-04-06T01:19:51;-0.50;99.90
5344;DHT22;2694;48.954;8.928;2023-04-06T01:22:20;-0.50;99.90
5344;DHT22;2694;48.954;8.928;2023-04-06T01:24:47;-0.40;99.90
5344;DHT22;2694;48.954;8.928;2023-04-06T01:27:14;-0.40;99.90
5344;DHT22;2694;48.954;8.928;2023-04-06T01:29:42;-0.40;99.90
5344;DHT22;2694;48.954;8.928;2023-04-06T01:32:09;-0.40;99.90
5344;DHT22;2694;48.954;8.928;2023-04-06T01:34:36;-0.40;99.90
5344;DHT22;2694;48.954;8.928;2023-04-06T01:37:03;-0.40;99.90
5344;DHT22;2694;48.954;8.928;2023-04-06T01:39:31;-0.50;99.90
5344;DHT22;2694;48.954;8.928;2023-04-06T01:41:58;-0.50;99.90
5344;DHT22;2694;48.954;8.928;2023-04-06T01:44:25;-0.50;99.90
5344;DHT22;2694;48.954;8.928;2023-04-06T01:46:52;-0.50;99.90
5344;DHT22;2694;48.954;8.928;2023-04-06T01:49:19;-0.50;99.90
5344;DHT22;2694;48.954;8.928;2023-04-06T01:51:46;-0.40;99.90
5344;DHT22;2694;48.954;8.928;2023-04-06T01:54:13;-0.30;99.90
5344;DHT22;2694;48.954;8.928;2023-04-06T01:56:42;-0.10;99.90
5344;DHT22;2694;48.954;8.928;2023-04-06T01:59:09;0.10;99.90
5344;DHT22;2694;48.954;8.928;2023-04-06T02:01:36;0.20;99.90
5344;DHT22;2694;48.954;8.928;2023-04-06T02:04:03;0.10;99.90
5344;DHT22;2694;48.954;8.928;2023-04-06T02:06:30;0.00;99.90
5344;DHT22;2694;48.954;8.928;2023-04-06T02:08:57;0.00;99.90
5344;DHT22;2694;48.954;8.928;2023-04-06T02:11:24;0.00;99.90
5344;DHT22;2694;48.954;8.928;2023-04-06T02:13:54;0.10;99.90
5344;DHT22;2694;48.954;8.928;2023-04-06T02:16:21;0.20;99.90
5344;DHT22;2694;48.954;8.928;2023-04-06T02:18:48;0.10;99.90
5344;DHT22;2694;48.954;8.928;2023-04-06T02:21:16;0.10;99.90
5344;DHT22;2694;48.954;8.928;2023-04-06T02:23:45;0.10;99.90
5344;DHT22;2694;48.954;8.928;2023-04-06T02:26:12;0.00;99.90
5344;DHT22;2694;48.954;8.928;2023-04-06T02:28:40;-0.10;99.90
5344;DHT22;2694;48.954;8.928;2023-04-06T02:31:08;-0.10;99.90
5344;DHT22;2694;48.954;8.928;2023-04-06T02:33:36;0.00;99.90
5344;DHT22;2694;48.954;8.928;2023-04-06T02:36:04;-0.10;99.90
5344;DHT22;2694;48.954;8.928;2023-04-06T02:38:31;0.00;99.90
5344;DHT22;2694;48.954;8.928;2023-04-06T02:40:58;-0.10;99.90
5344;DHT22;2694;48.954;8.928;2023-04-06T02:43:25;-0.10;99.90
5344;DHT22;2694;48.954;8.928;2023-04-06T02:45:52;-0.10;99.90
5344;DHT22;2694;48.954;8.928;2023-04-06T02:48:20;0.00;99.90
5344;DHT22;2694;48.954;8.928;2023-04-06T02:50:47;0.10;99.90
5344;DHT22;2694;48.954;8.928;2023-04-06T02:53:14;0.20;99.90
5344;DHT22;2694;48.954;8.928;2023-04-06T02:55:41;0.10;99.90
5344;DHT22;2694;48.954;8.928;2023-04-06T02:58:08;0.00;99.90
5344;DHT22;2694;48.954;8.928;2023-04-06T03:00:35;-0.10;99.90
5344;DHT22;2694;48.954;8.928;2023-04-06T03:03:02;-0.10;99.90
5344;DHT22;2694;48.954;8.928;2023-04-06T03:05:31;-0.30;99.90
5344;DHT22;2694;48.954;8.928;2023-04-06T03:07:58;-0.40;99.90
5344;DHT22;2694;48.954;8.928;2023-04-06T03:10:25;-0.50;99.90
5344;DHT22;2694;48.954;8.928;2023-04-06T03:12:52;-0.60;99.90
5344;DHT22;2694;48.954;8.928;2023-04-06T03:15:19;-0.60;99.90
5344;DHT22;2694;48.954;8.928;2023-04-06T03:17:46;-0.70;99.90
5344;DHT22;2694;48.954;8.928;2023-04-06T03:20:13;-0.70;99.90
5344;DHT22;2694;48.954;8.928;2023-04-06T03:22:42;-0.70;99.90
5344;DHT22;2694;48.954;8.928;2023-04-06T03:25:09;-0.70;99.90
5344;DHT22;2694;48.954;8.928;2023-04-06T03:27:36;-0.90;99.90
5344;DHT22;2694;48.954;8.928;2023-04-06T03:30:04;-1.00;99.90
5344;DHT22;2694;48.954;8.928;2023-04-06T03:32:31;-1.00;99.90
5344;DHT22;2694;48.954;8.928;2023-04-06T03:34:58;-1.00;99.90
5344;DHT22;2694;48.954;8.928;2023-04-06T03:37:25;-1.10;99.90
5344;DHT22;2694;48.954;8.928;2023-04-06T03:39:53;-1.10;99.90
5344;DHT22;2694;48.954;8.928;2023-04-06T03:42:20;-1.20;99.90
5344;DHT22;2694;48.954;8.928;2023-04-06T03:44:48;-1.10;99.90
5344;DHT22;2694;48.954;8.928;2023-04-06T03:47:15;-1.10;99.90
5344;DHT22;2694;48.954;8.928;2023-04-06T03:49:42;-1.10;99.90
5344;DHT22;2694;48.954;8.928;2023-04-06T03:52:09;-1.10;99.90
5344;DHT22;2694;48.954;8.928;2023-04-06T03:54:36;-1.10;99.90
5344;DHT22;2694;48.954;8.928;2023-04-06T03:57:05;-1.10;99.90
5344;DHT22;2694;48.954;8.928;2023-04-06T03:59:32;-1.10;99.90
5344;DHT22;2694;48.954;8.928;2023-04-06T04:01:59;-1.10;99.90
5344;DHT22;2694;48.954;8.928;2023-04-06T04:04:26;-1.10;99.90
5344;DHT22;2694;48.954;8.928;2023-04-06T04:06:53;-1.10;99.90
5344;DHT22;2694;48.954;8.928;2023-04-06T04:09:20;-1.10;99.90
5344;DHT22;2694;48.954;8.928;2023-04-06T04:11:47;-1.10;99.90
5344;DHT22;2694;48.954;8.928;2023-04-06T04:14:16;-1.20;99.90
5344;DHT22;2694;48.954;8.928;2023-04-06T04:16:43;-1.10;99.90
5344;DHT22;2694;48.954;8.928;2023-04-06T04:19:10;-1.10;99.90
5344;DHT22;2694;48.954;8.928;2023-04-06T04:21:42;-1.20;99.90
5344;DHT22;2694;48.954;8.928;2023-04-06T04:24:10;-1.30;99.90
5344;DHT22;2694;48.954;8.928;2023-04-06T04:26:38;-1.30;99.90
5344;DHT22;2694;48.954;8.928;2023-04-06T04:29:05;-1.40;99.90
5344;DHT22;2694;48.954;8.928;2023-04-06T04:31:33;-1.40;99.90
5344;DHT22;2694;48.954;8.928;2023-04-06T04:34:01;-1.50;99.90
5344;DHT22;2694;48.954;8.928;2023-04-06T04:36:28;-1.60;99.90
5344;DHT22;2694;48.954;8.928;2023-04-06T04:38:55;-1.80;99.90
5344;DHT22;2694;48.954;8.928;2023-04-06T04:41:22;-1.90;99.90
5344;DHT22;2694;48.954;8.928;2023-04-06T04:43:49;-1.80;99.90
5344;DHT22;2694;48.954;8.928;2023-04-06T04:46:16;-1.80;99.90
5344;DHT22;2694;48.954;8.928;2023-04-06T04:48:44;-1.70;99.90
5344;DHT22;2694;48.954;8.928;2023-04-06T04:51:11;-1.70;99.90
5344;DHT22;2694;48.954;8.928;2023-04-06T04:53:38;-1.70;99.90
5344;DHT22;2694;48.954;8.928;2023-04-06T04:56:05;-1.60;99.90
5344;DHT22;2694;48.954;8.928;2023-04-06T04:58:32;-1.60;99.90
5344;DHT22;2694;48.954;8.928;2023-04-06T05:00:59;-1.60;99.90
5344;DHT22;2694;48.954;8.928;2023-04-06T05:03:27;-1.50;99.90
5344;DHT22;2694;48.954;8.928;2023-04-06T05:05:55;-1.40;99.90
5344;DHT22;2694;48.954;8.928;2023-04-06T05:08:22;-1.50;99.90
5344;DHT22;2694;48.954;8.928;2023-04-06T05:10:49;-1.50;99.90
5344;DHT22;2694;48.954;8.928;2023-04-06T05:13:16;-1.50;99.90
5344;DHT22;2694;48.954;8.928;2023-04-06T05:15:43;-1.40;99.90
5344;DHT22;2694;48.954;8.928;2023-04-06T05:18:10;-1.30;99.90
5344;DHT22;2694;48.954;8.928;2023-04-06T05:20:38;-1.20;99.90
5344;DHT22;2694;48.954;8.928;2023-04-06T05:23:07;-1.20;99.90
5344;DHT22;2694;48.954;8.928;2023-04-06T05:25:34;-1.20;99.90
5344;DHT22;2694;48.954;8.928;2023-04-06T05:28:01;-1.10;99.90
5344;DHT22;2694;48.954;8.928;2023-04-06T05:30:29;-0.90;99.90
5344;DHT22;2694;48.954;8.928;2023-04-06T05:32:56;-0.80;99.90
5344;DHT22;2694;48.954;8.928;2023-04-06T05:35:23;-0.80;99.90
5344;DHT22;2694;48.954;8.928;2023-04-06T05:37:50;-0.80;99.90
5344;DHT22;2694;48.954;8.928;2023-04-06T05:40:18;-0.80;99.90
5344;DHT22;2694;48.954;8.928;2023-04-06T05:42:45;-0.70;99.90
5344;DHT22;2694;48.954;8.928;2023-04-06T05:45:13;-0.70;99.90
5344;DHT22;2694;48.954;8.928;2023-04-06T05:47:42;-0.60;99.90
5344;DHT22;2694;48.954;8.928;2023-04-06T05:50:09;-0.60;99.90
5344;DHT22;2694;48.954;8.928;2023-04-06T05:52:36;-0.50;99.90
5344;DHT22;2694;48.954;8.928;2023-04-06T05:55:04;-0.30;99.90
5344;DHT22;2694;48.954;8.928;2023-04-06T05:57:33;-0.40;99.90
5344;DHT22;2694;48.954;8.928;2023-04-06T06:00:00;-0.30;99.90
5344;DHT22;2694;48.954;8.928;2023-04-06T06:02:30;-0.30;99.90
5344;DHT22;2694;48.954;8.928;2023-04-06T06:04:57;-0.40;99.90
5344;DHT22;2694;48.954;8.928;2023-04-06T06:07:24;-0.40;99.90
5344;DHT22;2694;48.954;8.928;2023-04-06T06:09:51;-0.30;99.90
5344;DHT22;2694;48.954;8.928;2023-04-06T06:12:19;-0.10;99.90
5344;DHT22;2694;48.954;8.928;2023-04-06T06:14:47;0.00;99.90
5344;DHT22;2694;48.954;8.928;2023-04-06T06:17:16;0.10;99.90
5344;DHT22;2694;48.954;8.928;2023-04-06T06:19:43;0.10;99.90
5344;DHT22;2694;48.954;8.928;2023-04-06T06:22:10;0.30;99.90
5344;DHT22;2694;48.954;8.928;2023-04-06T06:24:37;0.40;99.90
5344;DHT22;2694;48.954;8.928;2023-04-06T06:27:04;0.60;99.90
5344;DHT22;2694;48.954;8.928;2023-04-06T06:29:33;0.80;99.90
5344;DHT22;2694;48.954;8.928;2023-04-06T06:32:01;0.90;99.90
5344;DHT22;2694;48.954;8.928;2023-04-06T06:34:28;1.10;99.90
5344;DHT22;2694;48.954;8.928;2023-04-06T06:36:55;1.20;99.90
5344;DHT22;2694;48.954;8.928;2023-04-06T06:39:22;1.30;99.90
5344;DHT22;2694;48.954;8.928;2023-04-06T06:41:50;1.50;99.90
5344;DHT22;2694;48.954;8.928;2023-04-06T06:44:17;1.70;99.90
5344;DHT22;2694;48.954;8.928;2023-04-06T06:46:44;1.90;99.90
5344;DHT22;2694;48.954;8.928;2023-04-06T06:49:12;2.00;99.90
5344;DHT22;2694;48.954;8.928;2023-04-06T06:51:40;2.10;99.90
5344;DHT22;2694;48.954;8.928;2023-04-06T06:54:07;2.20;99.90
5344;DHT22;2694;48.954;8.928;2023-04-06T06:56:34;2.30;99.90
5344;DHT22;2694;48.954;8.928;2023-04-06T06:59:03;2.30;99.90
5344;DHT22;2694;48.954;8.928;2023-04-06T07:01:33;2.40;99.90
5344;DHT22;2694;48.954;8.928;2023-04-06T07:04:00;2.60;99.90
5344;DHT22;2694;48.954;8.928;2023-04-06T07:06:28;2.70;99.90
5344;DHT22;2694;48.954;8.928;2023-04-06T07:08:55;2.80;99.90
5344;DHT22;2694;48.954;8.928;2023-04-06T07:11:22;3.00;99.90
5344;DHT22;2694;48.954;8.928;2023-04-06T07:13:49;3.10;99.90
5344;DHT22;2694;48.954;8.928;2023-04-06T07:16:16;3.20;99.90
5344;DHT22;2694;48.954;8.928;2023-04-06T07:18:43;3.30;99.90
5344;DHT22;2694;48.954;8.928;2023-04-06T07:21:11;3.40;99.90
5344;DHT22;2694;48.954;8.928;2023-04-06T07:23:39;3.40;99.90
5344;DHT22;2694;48.954;8.928;2023-04-06T07:26:06;3.50;99.90
5344;DHT22;2694;48.954;8.928;2023-04-06T07:28:33;3.70;99.90
5344;DHT22;2694;48.954;8.928;2023-04-06T07:31:00;3.80;99.90
5344;DHT22;2694;48.954;8.928;2023-04-06T07:33:27;3.80;99.90
5344;DHT22;2694;48.954;8.928;2023-04-06T07:35:55;4.00;99.90
5344;DHT22;2694;48.954;8.928;2023-04-06T07:38:24;4.10;99.90
5344;DHT22;2694;48.954;8.928;2023-04-06T07:40:52;4.20;99.90
5344;DHT22;2694;48.954;8.928;2023-04-06T07:43:19;4.30;99.90
5344;DHT22;2694;48.954;8.928;2023-04-06T07:45:46;4.60;99.90
5344;DHT22;2694;48.954;8.928;2023-04-06T07:48:13;4.70;99.90
5344;DHT22;2694;48.954;8.928;2023-04-06T07:50:40;4.80;99.90
5344;DHT22;2694;48.954;8.928;2023-04-06T07:53:08;5.00;99.90
5344;DHT22;2694;48.954;8.928;2023-04-06T07:55:36;5.10;99.90
5344;DHT22;2694;48.954;8.928;2023-04-06T07:58:04;5.40;99.90
5344;DHT22;2694;48.954;8.928;2023-04-06T08:00:32;5.40;99.90
5344;DHT22;2694;48.954;8.928;2023-04-06T08:02:59;5.40;99.90
5344;DHT22;2694;48.954;8.928;2023-04-06T08:05:26;5.60;99.90
5344;DHT22;2694;48.954;8.928;2023-04-06T08:07:53;5.70;99.90
5344;DHT22;2694;48.954;8.928;2023-04-06T08:10:20;5.90;99.90
5344;DHT22;2694;48.954;8.928;2023-04-06T08:12:47;6.00;99.90
5344;DHT22;2694;48.954;8.928;2023-04-06T08:15:16;6.10;99.90
5344;DHT22;2694;48.954;8.928;2023-04-06T08:17:43;6.30;99.90
5344;DHT22;2694;48.954;8.928;2023-04-06T08:20:10;6.40;99.90
5344;DHT22;2694;48.954;8.928;2023-04-06T08:22:38;6.60;99.90
5344;DHT22;2694;48.954;8.928;2023-04-06T08:25:05;6.70;99.90
5344;DHT22;2694;48.954;8.928;2023-04-06T08:27:32;7.00;99.20
5344;DHT22;2694;48.954;8.928;2023-04-06T08:29:59;7.30;99.60
5344;DHT22;2694;48.954;8.928;2023-04-06T08:32:28;7.40;98.90
5344;DHT22;2694;48.954;8.928;2023-04-06T08:34:55;7.70;99.10
5344;DHT22;2694;48.954;8.928;2023-04-06T08:37:24;8.00;97.90
5344;DHT22;2694;48.954;8.928;2023-04-06T08:39:59;7.90;98.50
5344;DHT22;2694;48.954;8.928;2023-04-06T08:42:28;8.30;98.40
5344;DHT22;2694;48.954;8.928;2023-04-06T08:44:59;8.60;97.50
5344;DHT22;2694;48.954;8.928;2023-04-06T08:47:28;8.60;96.80
5344;DHT22;2694;48.954;8.928;2023-04-06T08:49:55;8.80;96.90
5344;DHT22;2694;48.954;8.928;2023-04-06T08:52:23;8.80;97.20
5344;DHT22;2694;48.954;8.928;2023-04-06T08:54:52;9.00;96.70
5344;DHT22;2694;48.954;8.928;2023-04-06T08:57:19;9.30;96.10
5344;DHT22;2694;48.954;8.928;2023-04-06T08:59:47;9.40;94.20
5344;DHT22;2694;48.954;8.928;2023-04-06T09:02:20;9.50;94.00
5344;DHT22;2694;48.954;8.928;2023-04-06T09:04:52;9.50;94.10
5344;DHT22;2694;48.954;8.928;2023-04-06T09:07:21;9.60;93.70
5344;DHT22;2694;48.954;8.928;2023-04-06T09:09:48;9.80;93.70
5344;DHT22;2694;48.954;8.928;2023-04-06T09:12:23;9.90;92.20
5344;DHT22;2694;48.954;8.928;2023-04-06T09:14:50;9.90;91.90
5344;DHT22;2694;48.954;8.928;2023-04-06T09:17:21;10.00;91.70
5344;DHT22;2694;48.954;8.928;2023-04-06T09:19:50;10.00;91.80
5344;DHT22;2694;48.954;8.928;2023-04-06T09:22:17;10.30;91.10
5344;DHT22;2694;48.954;8.928;2023-04-06T09:24:46;10.50;91.00
5344;DHT22;2694;48.954;8.928;2023-04-06T09:27:14;10.70;91.10
5344;DHT22;2694;48.954;8.928;2023-04-06T09:29:42;11.00;90.90
5344;DHT22;2694;48.954;8.928;2023-04-06T09:32:10;11.20;87.60
5344;DHT22;2694;48.954;8.928;2023-04-06T09:34:38;11.40;83.00
5344;DHT22;2694;48.954;8.928;2023-04-06T09:37:17;11.50;86.00
5344;DHT22;2694;48.954;8.928;2023-04-06T09:39:45;11.80;84.80
5344;DHT22;2694;48.954;8.928;2023-04-06T09:42:22;11.70;75.80
5344;DHT22;2694;48.954;8.928;2023-04-06T09:44:50;11.60;75.20
5344;DHT22;2694;48.954;8.928;2023-04-06T09:47:18;11.60;77.50
5344;DHT22;2694;48.954;8.928;2023-04-06T09:49:47;11.50;78.20
5344;DHT22;2694;48.954;8.928;2023-04-06T09:52:18;11.60;76.20
5344;DHT22;2694;48.954;8.928;2023-04-06T09:54:46;11.70;75.70
5344;DHT22;2694;48.954;8.928;2023-04-06T09:57:21;11.60;75.60
5344;DHT22;2694;48.954;8.928;2023-04-06T09:59:55;11.60;72.60
5344;DHT22;2694;48.954;8.928;2023-04-06T10:02:32;11.60;73.40
5344;DHT22;2694;48.954;8.928;2023-04-06T10:05:05;11.90;66.50
5344;DHT22;2694;48.954;8.928;2023-04-06T10:07:40;12.00;70.30
5344;DHT22;2694;48.954;8.928;2023-04-06T10:10:08;11.80;71.00
5344;DHT22;2694;48.954;8.928;2023-04-06T10:12:37;11.90;75.60
5344;DHT22;2694;48.954;8.928;2023-04-06T10:15:05;12.20;78.60
5344;DHT22;2694;48.954;8.928;2023-04-06T10:17:33;12.50;73.00
5344;DHT22;2694;48.954;8.928;2023-04-06T10:20:06;12.80;68.30
5344;DHT22;2694;48.954;8.928;2023-04-06T10:22:41;12.60;72.30
5344;DHT22;2694;48.954;8.928;2023-04-06T10:25:09;12.70;67.60
5344;DHT22;2694;48.954;8.928;2023-04-06T10:27:36;12.70;67.80
5344;DHT22;2694;48.954;8.928;2023-04-06T10:30:05;12.60;67.00
5344;DHT22;2694;48.954;8.928;2023-04-06T10:32:36;12.40;68.60
5344;DHT22;2694;48.954;8.928;2023-04-06T10:35:07;12.40;67.30
5344;DHT22;2694;48.954;8.928;2023-04-06T10:37:49;12.50;69.90
5344;DHT22;2694;48.954;8.928;2023-04-06T10:40:23;12.60;72.60
5344;DHT22;2694;48.954;8.928;2023-04-06T10:42:53;12.80;69.50
5344;DHT22;2694;48.954;8.928;2023-04-06T10:45:22;12.80;65.00
5344;DHT22;2694;48.954;8.928;2023-04-06T10:47:50;12.50;65.70
5344;DHT22;2694;48.954;8.928;2023-04-06T10:50:19;12.50;65.70
5344;DHT22;2694;48.954;8.928;2023-04-06T10:52:48;12.30;65.90
5344;DHT22;2694;48.954;8.928;2023-04-06T10:55:26;12.20;67.10
5344;DHT22;2694;48.954;8.928;2023-04-06T10:57:53;12.20;65.80
5344;DHT22;2694;48.954;8.928;2023-04-06T11:00:21;12.30;64.80
5344;DHT22;2694;48.954;8.928;2023-04-06T11:02:48;12.50;70.30
5344;DHT22;2694;48.954;8.928;2023-04-06T11:05:15;12.70;65.30
5344;DHT22;2694;48.954;8.928;2023-04-06T11:07:42;12.80;66.10
5344;DHT22;2694;48.954;8.928;2023-04-06T11:10:12;12.80;67.60
5344;DHT22;2694;48.954;8.928;2023-04-06T11:12:53;12.90;66.60
5344;DHT22;2694;48.954;8.928;2023-04-06T11:15:20;13.00;67.50
5344;DHT22;2694;48.954;8.928;2023-04-06T11:17:47;13.30;69.70
5344;DHT22;2694;48.954;8.928;2023-04-06T11:20:15;13.40;67.30
5344;DHT22;2694;48.954;8.928;2023-04-06T11:22:50;13.40;63.40
5344;DHT22;2694;48.954;8.928;2023-04-06T11:25:18;13.10;62.80
5344;DHT22;2694;48.954;8.928;2023-04-06T11:27:46;12.70;62.40
5344;DHT22;2694;48.954;8.928;2023-04-06T11:30:14;12.60;66.50
5344;DHT22;2694;48.954;8.928;2023-04-06T11:32:42;12.70;65.40
5344;DHT22;2694;48.954;8.928;2023-04-06T11:35:11;12.80;65.00
5344;DHT22;2694;48.954;8.928;2023-04-06T11:37:39;12.80;64.30
5344;DHT22;2694;48.954;8.928;2023-04-06T11:40:08;12.90;64.90
5344;DHT22;2694;48.954;8.928;2023-04-06T11:42:37;13.00;66.60
5344;DHT22;2694;48.954;8.928;2023-04-06T11:45:07;13.10;62.00
5344;DHT22;2694;48.954;8.928;2023-04-06T11:47:36;13.00;61.60
5344;DHT22;2694;48.954;8.928;2023-04-06T11:50:08;12.90;61.00
5344;DHT22;2694;48.954;8.928;2023-04-06T11:52:36;12.80;62.90
5344;DHT22;2694;48.954;8.928;2023-04-06T11:55:11;13.00;62.80
5344;DHT22;2694;48.954;8.928;2023-04-06T11:57:41;12.80;60.50
5344;DHT22;2694;48.954;8.928;2023-04-06T12:00:09;10.60;60.60
5344;DHT22;2694;48.954;8.928;2023-04-06T12:02:37;12.90;61.10
5344;DHT22;2694;48.954;8.928;2023-04-06T12:05:06;12.80;61.00
5344;DHT22;2694;48.954;8.928;2023-04-06T12:07:33;12.90;60.30
5344;DHT22;2694;48.954;8.928;2023-04-06T12:10:02;12.80;60.70
5344;DHT22;2694;48.954;8.928;2023-04-06T12:12:30;12.90;60.80
5344;DHT22;2694;48.954;8.928;2023-04-06T12:15:00;13.00;61.40
5344;DHT22;2694;48.954;8.928;2023-04-06T12:17:28;13.00;59.80
5344;DHT22;2694;48.954;8.928;2023-04-06T12:19:55;13.10;60.30
5344;DHT22;2694;48.954;8.928;2023-04-06T12:22:25;12.80;59.00
5344;DHT22;2694;48.954;8.928;2023-04-06T12:24:52;12.80;61.60
5344;DHT22;2694;48.954;8.928;2023-04-06T12:27:19;13.10;60.40
5344;DHT22;2694;48.954;8.928;2023-04-06T12:29:47;13.20;59.80
5344;DHT22;2694;48.954;8.928;2023-04-06T12:32:15;13.00;59.30
5344;DHT22;2694;48.954;8.928;2023-04-06T12:34:42;12.80;60.40
5344;DHT22;2694;48.954;8.928;2023-04-06T12:37:09;12.90;59.50
5344;DHT22;2694;48.954;8.928;2023-04-06T12:39:36;12.80;59.90
5344;DHT22;2694;48.954;8.928;2023-04-06T12:42:04;12.90;60.70
5344;DHT22;2694;48.954;8.928;2023-04-06T12:44:32;13.10;59.80
5344;DHT22;2694;48.954;8.928;2023-04-06T12:46:59;12.90;59.70
5344;DHT22;2694;48.954;8.928;2023-04-06T12:49:30;13.00;58.80
5344;DHT22;2694;48.954;8.928;2023-04-06T12:51:57;13.10;59.50
5344;DHT22;2694;48.954;8.928;2023-04-06T12:54:24;13.30;59.70
5344;DHT22;2694;48.954;8.928;2023-04-06T12:56:52;13.40;58.50
5344;DHT22;2694;48.954;8.928;2023-04-06T12:59:21;13.60;58.50
5344;DHT22;2694;48.954;8.928;2023-04-06T13:01:51;13.70;57.80
5344;DHT22;2694;48.954;8.928;2023-04-06T13:04:18;13.60;58.10
5344;DHT22;2694;48.954;8.928;2023-04-06T13:06:47;13.50;58.10
5344;DHT22;2694;48.954;8.928;2023-04-06T13:09:15;13.60;61.80
5344;DHT22;2694;48.954;8.928;2023-04-06T13:11:42;13.70;58.20
5344;DHT22;2694;48.954;8.928;2023-04-06T13:14:10;13.90;58.10
5344;DHT22;2694;48.954;8.928;2023-04-06T13:16:37;13.80;57.00
5344;DHT22;2694;48.954;8.928;2023-04-06T13:19:04;13.80;57.50
5344;DHT22;2694;48.954;8.928;2023-04-06T13:21:31;14.10;59.50
5344;DHT22;2694;48.954;8.928;2023-04-06T13:24:00;14.30;60.00
5344;DHT22;2694;48.954;8.928;2023-04-06T13:26:27;14.60;59.70
5344;DHT22;2694;48.954;8.928;2023-04-06T13:28:54;14.80;58.20
5344;DHT22;2694;48.954;8.928;2023-04-06T13:31:22;15.10;59.60
5344;DHT22;2694;48.954;8.928;2023-04-06T13:33:49;15.40;59.10
5344;DHT22;2694;48.954;8.928;2023-04-06T13:36:16;15.60;58.20
5344;DHT22;2694;48.954;8.928;2023-04-06T13:38:43;15.30;54.40
5344;DHT22;2694;48.954;8.928;2023-04-06T13:41:17;14.90;54.50
5344;DHT22;2694;48.954;8.928;2023-04-06T13:43:46;14.80;58.00
5344;DHT22;2694;48.954;8.928;2023-04-06T13:46:13;14.80;57.80
5344;DHT22;2694;48.954;8.928;2023-04-06T13:48:41;14.90;59.10
5344;DHT22;2694;48.954;8.928;2023-04-06T13:51:08;14.80;58.00
5344;DHT22;2694;48.954;8.928;2023-04-06T13:53:35;14.70;56.00
5344;DHT22;2694;48.954;8.928;2023-04-06T13:56:03;14.60;56.90
5344;DHT22;2694;48.954;8.928;2023-04-06T13:58:31;14.50;56.50
5344;DHT22;2694;48.954;8.928;2023-04-06T14:01:02;14.50;57.90
5344;DHT22;2694;48.954;8.928;2023-04-06T14:03:29;14.50;55.90
5344;DHT22;2694;48.954;8.928;2023-04-06T14:05:56;14.60;58.00
5344;DHT22;2694;48.954;8.928;2023-04-06T14:08:23;14.60;56.80
5344;DHT22;2694;48.954;8.928;2023-04-06T14:10:50;14.70;57.30
5344;DHT22;2694;48.954;8.928;2023-04-06T14:13:17;14.60;56.50
5344;DHT22;2694;48.954;8.928;2023-04-06T14:15:46;14.70;58.10
5344;DHT22;2694;48.954;8.928;2023-04-06T14:18:13;14.90;58.00
5344;DHT22;2694;48.954;8.928;2023-04-06T14:20:39;14.90;57.80
5344;DHT22;2694;48.954;8.928;2023-04-06T14:23:07;15.00;56.30
5344;DHT22;2694;48.954;8.928;2023-04-06T14:25:34;15.00;57.10
5344;DHT22;2694;48.954;8.928;2023-04-06T14:28:01;14.90;56.30
5344;DHT22;2694;48.954;8.928;2023-04-06T14:30:29;14.90;58.00
5344;DHT22;2694;48.954;8.928;2023-04-06T14:32:58;14.90;56.40
5344;DHT22;2694;48.954;8.928;2023-04-06T14:35:25;14.90;57.70
5344;DHT22;2694;48.954;8.928;2023-04-06T14:37:53;14.90;57.80
5344;DHT22;2694;48.954;8.928;2023-04-06T14:40:22;14.80;58.00
5344;DHT22;2694;48.954;8.928;2023-04-06T14:42:49;14.80;57.70
5344;DHT22;2694;48.954;8.928;2023-04-06T14:45:17;14.50;58.00
5344;DHT22;2694;48.954;8.928;2023-04-06T14:47:51;14.30;59.30
5344;DHT22;2694;48.954;8.928;2023-04-06T14:50:20;14.20;59.40
5344;DHT22;2694;48.954;8.928;2023-04-06T14:52:47;14.20;58.80
5344;DHT22;2694;48.954;8.928;2023-04-06T14:55:22;14.10;58.90
5344;DHT22;2694;48.954;8.928;2023-04-06T14:57:49;14.10;59.10
5344;DHT22;2694;48.954;8.928;2023-04-06T15:00:16;14.00;60.00
5344;DHT22;2694;48.954;8.928;2023-04-06T15:02:43;14.00;60.00
5344;DHT22;2694;48.954;8.928;2023-04-06T15:05:10;14.10;60.50
5344;DHT22;2694;48.954;8.928;2023-04-06T15:07:38;14.00;61.00
5344;DHT22;2694;48.954;8.928;2023-04-06T15:10:07;14.00;61.00
5344;DHT22;2694;48.954;8.928;2023-04-06T15:12:36;14.00;61.50
5344;DHT22;2694;48.954;8.928;2023-04-06T15:15:03;14.10;61.50
5344;DHT22;2694;48.954;8.928;2023-04-06T15:17:30;14.10;61.80
5344;DHT22;2694;48.954;8.928;2023-04-06T15:19:57;14.00;62.00
5344;DHT22;2694;48.954;8.928;2023-04-06T15:22:24;13.80;63.80
5344;DHT22;2694;48.954;8.928;2023-04-06T15:24:52;13.70;64.00
5344;DHT22;2694;48.954;8.928;2023-04-06T15:27:19;13.60;63.40
5344;DHT22;2694;48.954;8.928;2023-04-06T15:29:46;13.60;63.10
5344;DHT22;2694;48.954;8.928;2023-04-06T15:32:13;13.60;62.70
5344;DHT22;2694;48.954;8.928;2023-04-06T15:34:40;13.60;64.20
5344;DHT22;2694;48.954;8.928;2023-04-06T15:37:07;13.50;63.80
5344;DHT22;2694;48.954;8.928;2023-04-06T15:39:35;13.40;62.80
5344;DHT22;2694;48.954;8.928;2023-04-06T15:42:04;13.30;63.10
5344;DHT22;2694;48.954;8.928;2023-04-06T15:44:31;13.30;62.70
5344;DHT22;2694;48.954;8.928;2023-04-06T15:46:57;13.20;62.20
5344;DHT22;2694;48.954;8.928;2023-04-06T15:49:24;13.30;62.30
5344;DHT22;2694;48.954;8.928;2023-04-06T15:51:51;13.30;60.10
5344;DHT22;2694;48.954;8.928;2023-04-06T15:54:19;13.30;59.20
5344;DHT22;2694;48.954;8.928;2023-04-06T15:56:48;13.40;58.70
5344;DHT22;2694;48.954;8.928;2023-04-06T15:59:17;13.20;58.80
5344;DHT22;2694;48.954;8.928;2023-04-06T16:01:45;13.10;57.30
5344;DHT22;2694;48.954;8.928;2023-04-06T16:04:12;13.00;57.20
5344;DHT22;2694;48.954;8.928;2023-04-06T16:06:39;13.00;57.10
5344;DHT22;2694;48.954;8.928;2023-04-06T16:09:06;13.00;56.30